createdAt,value
2023-03-21T00:00:42.351Z,8.3
2023-03-21T00:03:48.570Z,8.3
2023-03-21T00:06:36.245Z,8.3
2023-03-21T00:09:24.023Z,8.3
2023-03-21T00:12:12.183Z,8.3
2023-03-21T00:15:01.592Z,8.3
2023-03-21T00:17:51.294Z,8.3
2023-03-21T00:20:43.363Z,8.3
2023-03-21T00:23:46.306Z,8.2
2023-03-21T00:26:34.318Z,8.2
2023-03-21T00:29:22.872Z,8.2
2023-03-21T00:32:10.613Z,8.1
2023-03-21T00:35:16.404Z,8.1
2023-03-21T00:38:24.384Z,8.1
2023-03-21T00:41:23.290Z,8.1
2023-03-21T00:44:19.744Z,8.1
2023-03-21T00:47:08.355Z,8.1
2023-03-21T00:49:57.723Z,8.1
2023-03-21T00:52:45.220Z,8.1
2023-03-21T00:55:32.853Z,8.1
2023-03-21T00:58:20.748Z,8.1
2023-03-21T01:01:08.451Z,8.1
2023-03-21T01:03:56.036Z,8.1
2023-03-21T01:06:49.920Z,8.1
2023-03-21T01:09:39.343Z,8.1
2023-03-21T01:12:28.324Z,8.1
2023-03-21T01:15:15.976Z,8.1
2023-03-21T01:18:03.756Z,8
2023-03-21T01:20:51.324Z,8
2023-03-21T01:23:41.128Z,8
2023-03-21T01:26:30.075Z,8
2023-03-21T01:29:18.099Z,8
2023-03-21T01:32:06.182Z,7.9
2023-03-21T01:34:53.685Z,7.9
2023-03-21T01:37:41.550Z,7.9
2023-03-21T01:40:29.935Z,7.9
2023-03-21T01:43:18.023Z,7.9
2023-03-21T01:46:10.486Z,7.8
2023-03-21T01:49:13.442Z,7.7
2023-03-21T01:52:12.187Z,7.7
2023-03-21T01:55:05.153Z,7.7
2023-03-21T01:58:05.871Z,7.7
2023-03-21T02:00:57.429Z,7.7
2023-03-21T02:03:45.922Z,7.7
2023-03-21T02:06:35.852Z,7.6
2023-03-21T02:09:31.847Z,7.6
2023-03-21T02:12:22.302Z,7.6
2023-03-21T02:15:11.011Z,7.6
2023-03-21T02:18:00.698Z,7.6
2023-03-21T02:20:58.097Z,7.6
2023-03-21T02:24:08.469Z,7.5
2023-03-21T02:27:46.782Z,7.5
2023-03-21T02:30:51.422Z,7.5
2023-03-21T02:33:55.687Z,7.5
2023-03-21T02:37:09.064Z,7.5
2023-03-21T02:40:05.357Z,7.5
2023-03-21T02:43:00.838Z,7.5
2023-03-21T02:45:55.214Z,7.6
2023-03-21T02:48:51.259Z,7.5
2023-03-21T02:51:45.966Z,7.5
2023-03-21T02:54:47.570Z,7.5
2023-03-21T02:57:43.112Z,7.5
2023-03-21T03:00:35.476Z,7.6
2023-03-21T03:03:33.404Z,7.5
2023-03-21T03:06:24.071Z,7.6
2023-03-21T03:09:18.059Z,7.6
2023-03-21T03:12:16.288Z,7.6
2023-03-21T03:15:13.607Z,7.6
2023-03-21T03:18:14.513Z,7.6
2023-03-21T03:21:10.735Z,7.6
2023-03-21T03:24:05.711Z,7.6
2023-03-21T03:27:01.427Z,7.6
2023-03-21T03:29:55.626Z,7.5
2023-03-21T03:32:47.003Z,7.5
2023-03-21T03:35:39.737Z,7.4
2023-03-21T03:38:29.147Z,7.4
2023-03-21T03:41:19.696Z,7.4
2023-03-21T03:44:11.491Z,7.4
2023-03-21T03:46:59.471Z,7.4
2023-03-21T03:49:52.016Z,7.4
2023-03-21T03:52:55.616Z,7.3
2023-03-21T03:55:50.761Z,7.3
2023-03-21T03:58:45.527Z,7.3
2023-03-21T04:01:34.439Z,7.2
2023-03-21T04:04:22.149Z,7.2
2023-03-21T04:07:13.982Z,7.2
2023-03-21T04:10:01.606Z,7.2
2023-03-21T04:12:50.984Z,7.2
2023-03-21T04:15:38.558Z,7.1
2023-03-21T04:18:29.018Z,7.1
2023-03-21T04:21:17.039Z,7.1
2023-03-21T04:24:06.280Z,7.1
2023-03-21T04:26:54.449Z,7
2023-03-21T04:29:42.346Z,7
2023-03-21T04:32:30.457Z,7
2023-03-21T04:35:25.243Z,7
2023-03-21T04:38:13.615Z,7
2023-03-21T04:41:01.352Z,7
2023-03-21T04:43:49.757Z,7
2023-03-21T04:46:37.703Z,7
2023-03-21T04:49:27.009Z,7.1
2023-03-21T04:52:15.555Z,7
2023-03-21T04:55:03.314Z,7.1
2023-03-21T04:57:54.835Z,7.1
2023-03-21T05:00:42.808Z,7.1
2023-03-21T05:03:31.774Z,7.1
2023-03-21T05:06:24.569Z,7.1
2023-03-21T05:09:12.805Z,7.2
2023-03-21T05:12:00.387Z,7.2
2023-03-21T05:14:48.858Z,7.2
2023-03-21T05:17:36.673Z,7.2
2023-03-21T05:20:27.366Z,7.2
2023-03-21T05:23:14.876Z,7.2
2023-03-21T05:26:03.248Z,7.2
2023-03-21T05:28:53.088Z,7.2
2023-03-21T05:31:41.404Z,7.3
2023-03-21T05:34:30.413Z,7.3
2023-03-21T05:37:18.011Z,7.3
2023-03-21T05:40:05.573Z,7.3
2023-03-21T05:42:54.973Z,7.3
2023-03-21T05:45:43.016Z,7.3
2023-03-21T05:48:32.842Z,7.3
2023-03-21T05:51:20.965Z,7.3
2023-03-21T05:54:08.705Z,7.3
2023-03-21T05:57:01.362Z,7.3
2023-03-21T05:59:49.462Z,7.3
2023-03-21T06:02:37.085Z,7.3
2023-03-21T06:05:25.134Z,7.3
2023-03-21T06:08:12.968Z,7.3
2023-03-21T06:11:00.686Z,7.4
2023-03-21T06:13:48.452Z,7.3
2023-03-21T06:16:36.168Z,7.3
2023-03-21T06:19:23.733Z,7.4
2023-03-21T06:22:11.379Z,7.4
2023-03-21T06:24:59.032Z,7.4
2023-03-21T06:27:47.281Z,7.4
2023-03-21T06:30:35.107Z,7.4
2023-03-21T06:33:22.801Z,7.4
2023-03-21T06:36:11.050Z,7.4
2023-03-21T06:38:58.845Z,7.4
2023-03-21T06:41:46.543Z,7.4
2023-03-21T06:44:34.173Z,7.5
2023-03-21T06:47:22.040Z,7.5
2023-03-21T06:50:09.956Z,7.5
2023-03-21T06:52:57.720Z,7.5
2023-03-21T06:55:45.604Z,7.5
2023-03-21T06:58:35.343Z,7.6
2023-03-21T07:01:23.111Z,7.6
2023-03-21T07:04:12.292Z,7.6
2023-03-21T07:06:59.990Z,7.7
2023-03-21T07:09:47.715Z,7.7
2023-03-21T07:12:35.594Z,7.8
2023-03-21T07:15:23.300Z,7.8
2023-03-21T07:18:11.113Z,7.8
2023-03-21T07:20:58.825Z,7.8
2023-03-21T07:23:46.487Z,7.8
2023-03-21T07:26:34.913Z,7.8
2023-03-21T07:29:22.690Z,7.8
2023-03-21T07:32:10.524Z,7.7
2023-03-21T07:35:00.150Z,7.8
2023-03-21T07:37:49.883Z,7.9
2023-03-21T07:40:37.799Z,7.9
2023-03-21T07:43:26.466Z,8
2023-03-21T07:46:14.261Z,8
2023-03-21T07:49:02.069Z,8.1
2023-03-21T07:51:50.727Z,8.1
2023-03-21T07:54:38.770Z,8.1
2023-03-21T07:57:28.818Z,8.2
2023-03-21T08:00:16.792Z,8.3
2023-03-21T08:03:07.656Z,8.4
2023-03-21T08:05:55.802Z,8.5
2023-03-21T08:08:45.669Z,8.5
2023-03-21T08:11:33.361Z,8.6
2023-03-21T08:14:21.088Z,8.6
2023-03-21T08:17:08.740Z,8.6
2023-03-21T08:19:56.615Z,8.7
2023-03-21T08:22:44.196Z,8.7
2023-03-21T08:25:32.460Z,8.7
2023-03-21T08:28:21.119Z,8.7
2023-03-21T08:31:09.421Z,8.7
2023-03-21T08:33:58.344Z,8.7
2023-03-21T08:36:46.457Z,8.7
2023-03-21T08:39:34.146Z,8.7
2023-03-21T08:42:22.393Z,8.8
2023-03-21T08:45:11.133Z,8.9
2023-03-21T08:48:01.390Z,8.9
2023-03-21T08:50:49.276Z,8.9
2023-03-21T08:53:36.985Z,9
2023-03-21T08:56:26.214Z,9
2023-03-21T08:59:14.191Z,9
2023-03-21T09:02:01.907Z,9
2023-03-21T09:04:49.707Z,9.1
2023-03-21T09:07:39.790Z,9.2
2023-03-21T09:10:29.988Z,9.2
2023-03-21T09:13:17.622Z,9.2
2023-03-21T09:16:06.470Z,9.3
2023-03-21T09:18:54.606Z,9.3
2023-03-21T09:21:44.134Z,9.3
2023-03-21T09:24:32.387Z,9.4
2023-03-21T09:27:20.566Z,9.4
2023-03-21T09:30:13.743Z,9.5
2023-03-21T09:33:04.192Z,9.5
2023-03-21T09:35:53.262Z,9.5
2023-03-21T09:38:42.925Z,9.5
2023-03-21T09:41:32.645Z,9.5
2023-03-21T09:44:37.590Z,9.4
2023-03-21T09:47:41.667Z,9.5
2023-03-21T09:50:37.902Z,9.6
2023-03-21T09:53:27.345Z,9.7
2023-03-21T09:56:21.333Z,9.8
2023-03-21T09:59:10.685Z,9.8
2023-03-21T10:02:07.669Z,9.8
2023-03-21T10:05:17.016Z,9.9
2023-03-21T10:08:09.131Z,9.9
2023-03-21T10:11:04.144Z,10
2023-03-21T10:13:57.676Z,10
2023-03-21T10:16:50.568Z,10.1
2023-03-21T10:19:43.250Z,10.1
2023-03-21T10:22:36.513Z,10.1
2023-03-21T10:25:25.493Z,10
2023-03-21T10:28:19.701Z,9.9
2023-03-21T10:31:12.091Z,9.9
2023-03-21T10:34:03.982Z,9.9
2023-03-21T10:37:00.696Z,9.9
2023-03-21T10:39:50.310Z,10
2023-03-21T10:42:40.682Z,10.1
2023-03-21T10:45:29.552Z,10.2
2023-03-21T10:48:20.968Z,10.3
2023-03-21T10:51:10.550Z,10.3
2023-03-21T10:54:04.206Z,10.4
2023-03-21T10:56:56.823Z,10.6
2023-03-21T10:59:50.216Z,10.8
2023-03-21T11:02:42.893Z,11
2023-03-21T11:05:35.438Z,11.2
2023-03-21T11:08:26.075Z,11.5
2023-03-21T11:11:14.508Z,11.9
2023-03-21T11:14:09.352Z,12.4
2023-03-21T11:17:12.638Z,12.7
2023-03-21T11:20:07.368Z,12.9
2023-03-21T11:23:03.696Z,13.2
2023-03-21T11:25:52.258Z,13.6
2023-03-21T11:28:43.194Z,13.6
2023-03-21T11:31:32.107Z,13.2
2023-03-21T11:34:24.891Z,13.1
2023-03-21T11:37:17.080Z,13
2023-03-21T11:40:11.432Z,13
2023-03-21T11:43:07.831Z,13.1
2023-03-21T11:46:13.425Z,13.2
2023-03-21T11:49:01.257Z,13.3
2023-03-21T11:51:49.322Z,13.5
2023-03-21T11:54:48.638Z,13.6
2023-03-21T11:57:52.033Z,13.9
2023-03-21T12:00:50.364Z,14.2
2023-03-21T12:03:48.657Z,14.4
2023-03-21T12:06:47.954Z,14.8
2023-03-21T12:09:42.383Z,15
2023-03-21T12:12:39.412Z,15.1
2023-03-21T12:15:34.206Z,15.3
2023-03-21T12:18:28.838Z,15.2
2023-03-21T12:21:34.257Z,14.9
2023-03-21T12:24:33.608Z,14.7
2023-03-21T12:27:27.138Z,14.6
2023-03-21T12:30:26.020Z,14.4
2023-03-21T12:33:26.862Z,14.3
2023-03-21T12:36:30.532Z,14.1
2023-03-21T12:39:34.259Z,13.9
2023-03-21T12:42:24.916Z,13.8
2023-03-21T12:45:46.195Z,13.7
2023-03-21T12:48:40.608Z,13.6
2023-03-21T12:51:34.689Z,13.5
2023-03-21T12:54:27.451Z,13.5
2023-03-21T12:57:21.323Z,13.5
2023-03-21T13:00:14.650Z,13.5
2023-03-21T13:03:06.540Z,13.4
2023-03-21T13:05:59.115Z,13.5
2023-03-21T13:08:49.639Z,13.4
2023-03-21T13:11:43.734Z,13.4
2023-03-21T13:14:33.409Z,13.4
2023-03-21T13:17:37.837Z,13.3
2023-03-21T13:20:29.929Z,13.3
2023-03-21T13:23:27.506Z,13.3
2023-03-21T13:26:21.539Z,13.2
2023-03-21T13:29:19.099Z,13.1
2023-03-21T13:32:11.294Z,12.9
2023-03-21T13:35:08.328Z,12.8
2023-03-21T13:38:03.397Z,12.8
2023-03-21T13:40:59.508Z,12.7
2023-03-21T13:43:53.375Z,12.6
2023-03-21T13:46:54.676Z,12.5
2023-03-21T13:49:47.595Z,12.4
2023-03-21T13:53:06.444Z,12.3
2023-03-21T13:56:05.135Z,12.2
2023-03-21T13:59:05.595Z,12.1
2023-03-21T14:01:58.082Z,12
2023-03-21T14:05:04.032Z,12.1
2023-03-21T14:08:14.998Z,12
2023-03-21T14:11:06.031Z,11.9
2023-03-21T14:13:59.617Z,11.9
2023-03-21T14:19:38.624Z,11.9
2023-03-21T14:22:27.312Z,12
2023-03-21T14:25:15.382Z,12
2023-03-21T14:28:05.209Z,11.9
2023-03-21T14:31:01.925Z,11.9
2023-03-21T14:33:50.550Z,11.9
2023-03-21T14:36:45.801Z,11.8
2023-03-21T14:39:36.246Z,11.8
2023-03-21T14:42:23.972Z,11.8
2023-03-21T14:45:12.101Z,11.8
2023-03-21T14:48:04.454Z,11.8
2023-03-21T14:50:57.329Z,11.8
2023-03-21T14:53:49.069Z,11.7
2023-03-21T14:56:36.717Z,11.7
2023-03-21T14:59:25.554Z,11.6
2023-03-21T15:02:17.766Z,11.6
2023-03-21T15:05:10.739Z,11.5
2023-03-21T15:08:05.500Z,11.5
2023-03-21T15:11:06.897Z,11.4
2023-03-21T15:13:58.291Z,11.3
2023-03-21T15:16:48.712Z,11.2
2023-03-21T15:19:37.078Z,11.2
2023-03-21T15:22:27.659Z,11.1
2023-03-21T15:25:19.542Z,11.1
2023-03-21T15:28:11.604Z,11.1
2023-03-21T15:30:59.797Z,11
2023-03-21T15:33:49.810Z,11
2023-03-21T15:36:39.546Z,10.9
2023-03-21T15:39:32.583Z,10.9
2023-03-21T15:42:20.943Z,10.9
2023-03-21T15:45:12.835Z,10.9
2023-03-21T15:48:14.012Z,10.9
2023-03-21T15:51:06.450Z,10.8
2023-03-21T15:54:02.602Z,10.9
2023-03-21T15:56:51.659Z,10.9
2023-03-21T15:59:41.974Z,10.9
2023-03-21T16:02:32.641Z,10.9
2023-03-21T16:05:20.804Z,10.9
2023-03-21T16:08:13.126Z,10.9
2023-03-21T16:11:06.547Z,10.9
2023-03-21T16:14:03.643Z,10.8
2023-03-21T16:16:51.317Z,10.8
2023-03-21T16:19:40.295Z,10.6
2023-03-21T16:22:28.957Z,10.6
2023-03-21T16:25:19.577Z,10.6
2023-03-21T16:28:07.771Z,10.6
2023-03-21T16:30:59.526Z,10.6
2023-03-21T16:33:47.303Z,10.6
2023-03-21T16:36:35.896Z,10.6
2023-03-21T16:39:28.024Z,10.7
2023-03-21T16:42:15.882Z,10.7
2023-03-21T16:45:03.534Z,10.6
2023-03-21T16:47:52.427Z,10.6
2023-03-21T16:50:41.520Z,10.6
2023-03-21T16:53:32.759Z,10.6
2023-03-21T16:56:20.485Z,10.6
2023-03-21T16:59:10.674Z,10.6
2023-03-21T17:02:00.124Z,10.5
2023-03-21T17:04:54.271Z,10.5
2023-03-21T17:07:42.798Z,10.5
2023-03-21T17:10:31.753Z,10.5
2023-03-21T17:13:19.489Z,10.6
2023-03-21T17:16:07.509Z,10.6
2023-03-21T17:18:57.138Z,10.6
2023-03-21T17:21:46.438Z,10.6
2023-03-21T17:24:34.074Z,10.6
2023-03-21T17:27:22.262Z,10.6
2023-03-21T17:30:10.598Z,10.5
2023-03-21T17:33:07.941Z,10.5
2023-03-21T17:35:55.636Z,10.4
2023-03-21T17:38:43.608Z,10.4
2023-03-21T17:41:32.541Z,10.3
2023-03-21T17:44:20.764Z,10.3
2023-03-21T17:47:08.760Z,10.3
2023-03-21T17:49:56.429Z,10.3
2023-03-21T17:52:44.329Z,10.3
2023-03-21T17:55:33.101Z,10.3
2023-03-21T17:58:21.556Z,10.3
2023-03-21T18:01:09.140Z,10.3
2023-03-21T18:03:56.797Z,10.3
2023-03-21T18:06:47.359Z,10.3
2023-03-21T18:09:35.823Z,10.3
2023-03-21T18:12:23.388Z,10.3
2023-03-21T18:15:14.620Z,10.3
2023-03-21T18:18:04.889Z,10.2
2023-03-21T18:20:54.712Z,10.2
2023-03-21T18:23:43.737Z,10.2
2023-03-21T18:26:32.181Z,10.2
2023-03-21T18:30:19.649Z,10.2
2023-03-21T18:33:15.034Z,10.1
2023-03-21T18:36:07.562Z,10.1
2023-03-21T18:38:57.830Z,10.1
2023-03-21T18:41:47.318Z,10.1
2023-03-21T18:44:35.279Z,10.1
2023-03-21T18:47:24.641Z,10.1
2023-03-21T18:50:15.038Z,10.1
2023-03-21T18:53:03.275Z,10.1
2023-03-21T18:55:52.464Z,10.1
2023-03-21T18:58:40.932Z,10
2023-03-21T19:01:29.697Z,10
2023-03-21T19:04:23.915Z,10
2023-03-21T19:07:16.664Z,10
2023-03-21T19:10:17.391Z,10
2023-03-21T19:13:08.590Z,10
2023-03-21T19:15:56.943Z,9.9
2023-03-21T19:18:54.652Z,10
2023-03-21T19:21:44.765Z,9.9
2023-03-21T19:24:32.742Z,9.9
2023-03-21T19:27:20.485Z,9.8
2023-03-21T19:30:14.429Z,9.8
2023-03-21T19:33:03.624Z,9.8
2023-03-21T19:36:10.648Z,9.7
2023-03-21T19:39:01.006Z,9.7
2023-03-21T19:41:48.972Z,9.7
2023-03-21T19:44:37.196Z,9.6
2023-03-21T19:47:25.003Z,9.6
2023-03-21T19:50:47.363Z,9.6
2023-03-21T19:53:39.909Z,9.6
2023-03-21T19:56:28.802Z,9.6
2023-03-21T19:59:16.853Z,9.6
2023-03-21T20:02:25.608Z,9.6
2023-03-21T20:05:22.517Z,9.6
2023-03-21T20:08:11.082Z,9.6
2023-03-21T20:10:59.341Z,9.6
2023-03-21T20:13:47.685Z,9.6
2023-03-21T20:16:35.970Z,9.6
2023-03-21T20:19:23.903Z,9.6
2023-03-21T20:22:21.882Z,9.6
2023-03-21T20:25:15.867Z,9.6
2023-03-21T20:28:15.882Z,9.6
2023-03-21T20:31:05.108Z,9.6
2023-03-21T20:33:54.190Z,9.6
2023-03-21T20:36:43.429Z,9.6
2023-03-21T20:39:32.331Z,9.6
2023-03-21T20:42:20.625Z,9.5
2023-03-21T20:45:08.262Z,9.5
2023-03-21T20:47:59.653Z,9.5
2023-03-21T20:50:48.128Z,9.5
2023-03-21T20:53:35.999Z,9.6
2023-03-21T20:56:24.442Z,9.6
2023-03-21T20:59:23.200Z,9.6
2023-03-21T21:02:14.363Z,9.6
2023-03-21T21:05:24.705Z,9.5
2023-03-21T21:08:13.405Z,9.5
2023-03-21T21:11:56.615Z,9.5
2023-03-21T21:14:53.163Z,9.5
2023-03-21T21:20:44.376Z,9.5
2023-03-21T21:23:32.333Z,9.5
2023-03-21T21:26:21.957Z,9.5
2023-03-21T21:29:09.530Z,9.5
2023-03-21T21:32:01.666Z,9.4
2023-03-21T21:34:49.975Z,9.4
2023-03-21T21:37:38.031Z,9.4
2023-03-21T21:40:26.647Z,9.3
2023-03-21T21:43:14.615Z,9.3
2023-03-21T21:46:03.742Z,9.3
2023-03-21T21:48:52.131Z,9.3
2023-03-21T21:51:40.162Z,9.3
2023-03-21T21:54:30.922Z,9.3
2023-03-21T21:57:19.236Z,9.3
2023-03-21T22:00:07.575Z,9.3
2023-03-21T22:02:58.154Z,9.3
2023-03-21T22:05:46.649Z,9.2
2023-03-21T22:08:34.341Z,9.2
2023-03-21T22:11:21.946Z,9.2
2023-03-21T22:14:10.304Z,9.2
2023-03-21T22:16:58.948Z,9.2
2023-03-21T22:20:04.286Z,9.2
2023-03-21T22:22:56.834Z,9.1
2023-03-21T22:25:46.149Z,9.1
2023-03-21T22:28:36.345Z,9.2
2023-03-21T22:31:25.195Z,9.2
2023-03-21T22:34:12.976Z,9.2
2023-03-21T22:37:00.674Z,9.1
2023-03-21T22:39:48.439Z,9.1
2023-03-21T22:42:36.338Z,9.1
2023-03-21T22:45:25.036Z,9.1
2023-03-21T22:48:12.730Z,9.1
2023-03-21T22:51:00.632Z,9.1
2023-03-21T22:53:48.448Z,9.1
2023-03-21T22:56:36.016Z,9.1
2023-03-21T22:59:23.694Z,9.1
2023-03-21T23:02:11.944Z,9.1
2023-03-21T23:04:59.774Z,9.1
2023-03-21T23:07:47.350Z,9.1
2023-03-21T23:10:35.187Z,9.1
2023-03-21T23:13:23.517Z,9.1
2023-03-21T23:16:13.789Z,9.1
2023-03-21T23:19:02.668Z,9.1
2023-03-21T23:21:52.380Z,9.1
2023-03-21T23:24:41.119Z,9.1
2023-03-21T23:27:30.154Z,9
2023-03-21T23:30:20.038Z,9
2023-03-21T23:33:07.805Z,9
2023-03-21T23:35:56.327Z,9
2023-03-21T23:38:44.205Z,9
2023-03-21T23:41:32.336Z,9
2023-03-21T23:44:20.057Z,9
2023-03-21T23:47:07.629Z,9
2023-03-21T23:49:55.528Z,9
2023-03-21T23:52:43.524Z,9
2023-03-21T23:55:31.675Z,9
2023-03-21T23:58:22.418Z,9
